Time;durP1;ratioP1;P1;durP2;ratioP2;P2;SDS_P1;SDS_P2;PMS_P1;PMS_P2;Temp;Humidity;BMP_temperature;BMP_pressure;BME280_temperature;BME280_humidity;BME280_pressure;Samples;Min_cycle;Max_cycle;Signal;HPM_P1;HPM_P2
2022/01/11 00:01:23;;;;;;;34.33;17.92;;;2.50;99.90;;;;;;1749254;81;21137;-77
2022/01/11 00:03:50;;;;;;;34.58;17.37;;;2.50;99.90;;;;;;1746291;80;21183;-77
2022/01/11 00:06:28;;;;;;;26.30;16.07;;;2.60;99.90;;;;;;1755412;80;21090;-76
2022/01/11 00:09:00;;;;;;;34.38;18.25;;;2.50;99.90;;;;;;1745589;80;21128;-79
2022/01/11 00:11:25;;;;;;;30.37;17.55;;;2.60;99.90;;;;;;1749970;80;21471;-77
2022/01/11 00:13:52;;;;;;;30.77;17.95;;;2.50;99.90;;;;;;1751323;82;21066;-77
2022/01/11 00:16:19;;;;;;;37.38;17.52;;;2.50;99.90;;;;;;1750579;80;21108;-76
2022/01/11 00:18:47;;;;;;;29.82;17.92;;;2.40;99.90;;;;;;1743444;80;21121;-76
2022/01/11 00:21:14;;;;;;;28.05;17.50;;;2.30;99.90;;;;;;1750972;80;21081;-75
2022/01/11 00:26:10;;;;;;;25.08;14.95;;;2.40;99.90;;;;;;1747918;81;21512;-78
2022/01/11 00:28:38;;;;;;;35.25;16.80;;;2.40;99.90;;;;;;1755760;80;21107;-76
2022/01/11 00:31:07;;;;;;;34.95;16.70;;;2.30;99.90;;;;;;1743376;81;21508;-76
2022/01/11 00:33:42;;;;;;;36.45;16.05;;;2.40;99.90;;;;;;1752962;80;21119;-77
2022/01/11 00:36:07;;;;;;;33.18;16.17;;;2.40;99.90;;;;;;1747805;81;21470;-77
2022/01/11 00:38:37;;;;;;;26.35;15.35;;;2.40;99.90;;;;;;1738141;81;21213;-76
2022/01/11 00:41:06;;;;;;;32.90;16.55;;;2.30;99.90;;;;;;1739636;81;21116;-75
2022/01/11 00:43:34;;;;;;;24.45;15.85;;;2.40;99.90;;;;;;1754606;81;21155;-77
2022/01/11 00:46:01;;;;;;;28.42;16.80;;;2.40;99.90;;;;;;1752559;80;21116;-76
2022/01/11 00:48:28;;;;;;;27.30;15.60;;;2.50;99.90;;;;;;1759748;81;21109;-76
2022/01/11 00:50:56;;;;;;;29.48;16.30;;;2.50;99.90;;;;;;1744927;81;21110;-76
2022/01/11 00:53:24;;;;;;;28.10;16.70;;;2.40;99.90;;;;;;1742462;80;21108;-76
2022/01/11 00:55:51;;;;;;;30.97;16.40;;;2.50;99.90;;;;;;1748255;80;21494;-76
2022/01/11 00:58:18;;;;;;;27.27;16.77;;;2.40;99.90;;;;;;1746402;81;21621;-76
2022/01/11 01:00:46;;;;;;;26.87;16.87;;;2.40;99.90;;;;;;1745278;82;21101;-75
2022/01/11 01:03:13;;;;;;;26.93;17.45;;;2.40;99.90;;;;;;1748009;82;21231;-76
2022/01/11 01:05:41;;;;;;;24.05;16.75;;;2.30;99.90;;;;;;1748629;80;21203;-75
2022/01/11 01:08:08;;;;;;;29.70;17.98;;;2.30;99.90;;;;;;1756588;81;21113;-78
2022/01/11 01:10:37;;;;;;;30.30;18.52;;;2.30;99.90;;;;;;1748804;81;21493;-76
2022/01/11 01:13:07;;;;;;;26.90;17.85;;;2.30;99.90;;;;;;1748343;79;21195;-76
2022/01/11 01:15:35;;;;;;;28.55;17.07;;;2.50;99.90;;;;;;1745264;81;21192;-76
2022/01/11 01:18:02;;;;;;;27.32;17.15;;;2.50;99.90;;;;;;1749865;81;21601;-77
2022/01/11 01:20:30;;;;;;;30.00;18.25;;;2.50;99.90;;;;;;1750396;81;21163;-76
2022/01/11 01:22:57;;;;;;;29.80;17.75;;;2.50;99.90;;;;;;1744714;80;21188;-77
2022/01/11 01:25:24;;;;;;;24.10;16.93;;;2.50;99.90;;;;;;1744159;82;21187;-76
2022/01/11 01:27:52;;;;;;;25.55;17.15;;;2.60;99.90;;;;;;1740989;80;21582;-76
2022/01/11 01:30:21;;;;;;;33.85;17.90;;;2.60;99.90;;;;;;1739106;80;21187;-76
2022/01/11 01:32:50;;;;;;;32.63;17.57;;;2.60;99.90;;;;;;1752702;81;21114;-78
2022/01/11 01:35:19;;;;;;;31.33;17.37;;;2.50;99.90;;;;;;1746263;81;21098;-76
2022/01/11 01:37:46;;;;;;;37.73;18.67;;;2.40;99.90;;;;;;1759473;80;21069;-76
2022/01/11 01:40:17;;;;;;;25.62;17.23;;;2.40;99.90;;;;;;1755585;80;21180;-77
2022/01/11 01:42:46;;;;;;;27.50;17.67;;;2.40;99.90;;;;;;1752479;81;21257;-77
2022/01/11 01:45:13;;;;;;;24.80;16.77;;;2.40;99.90;;;;;;1749256;81;21162;-76
2022/01/11 01:47:41;;;;;;;27.90;17.52;;;2.40;99.90;;;;;;1742407;81;21129;-76
2022/01/11 01:50:08;;;;;;;27.87;16.67;;;2.40;99.90;;;;;;1746602;81;21089;-76
2022/01/11 01:52:36;;;;;;;33.67;17.30;;;2.40;99.90;;;;;;1748588;81;21109;-76
2022/01/11 01:55:05;;;;;;;25.85;16.85;;;2.40;99.90;;;;;;1746926;81;21544;-76
2022/01/11 01:57:32;;;;;;;31.87;16.37;;;2.50;99.90;;;;;;1751365;80;21226;-77
2022/01/11 02:00:03;;;;;;;29.40;18.07;;;2.40;99.90;;;;;;1751483;80;21082;-76
2022/01/11 02:02:28;;;;;;;38.92;18.55;;;2.40;99.90;;;;;;1752651;80;21121;-78
2022/01/11 02:04:57;;;;;;;28.73;17.20;;;2.40;99.90;;;;;;1752889;81;21151;-76
2022/01/11 02:07:26;;;;;;;29.92;16.82;;;2.50;99.90;;;;;;1742750;80;21540;-76
2022/01/11 02:09:53;;;;;;;35.15;18.10;;;2.40;99.90;;;;;;1751795;81;21116;-76
2022/01/11 02:12:21;;;;;;;36.48;19.15;;;2.30;99.90;;;;;;1749119;80;21183;-76
2022/01/11 02:14:48;;;;;;;30.82;18.23;;;2.30;99.90;;;;;;1753236;80;21252;-76
2022/01/11 02:17:15;;;;;;;31.33;17.98;;;2.30;99.90;;;;;;1745501;80;21454;-77
2022/01/11 02:19:42;;;;;;;26.97;17.10;;;2.40;99.90;;;;;;1744192;81;21191;-76
2022/01/11 02:22:10;;;;;;;28.07;16.30;;;2.50;99.90;;;;;;1746903;81;21513;-76
2022/01/11 02:24:37;;;;;;;31.55;17.52;;;2.50;99.90;;;;;;1741851;82;21086;-76
2022/01/11 02:27:04;;;;;;;29.85;17.40;;;2.50;99.90;;;;;;1753850;81;21195;-77
2022/01/11 02:29:32;;;;;;;36.15;17.57;;;2.50;99.90;;;;;;1752298;80;21112;-77
2022/01/11 02:31:59;;;;;;;25.40;15.20;;;2.40;99.90;;;;;;1758915;80;21190;-76
2022/01/11 02:34:26;;;;;;;35.08;17.57;;;2.50;99.90;;;;;;1752356;80;21110;-77
2022/01/11 02:36:54;;;;;;;38.23;18.07;;;2.50;99.90;;;;;;1754506;80;21637;-76
2022/01/11 02:39:21;;;;;;;32.80;16.97;;;2.50;99.90;;;;;;1751971;81;21112;-75
2022/01/11 02:41:54;;;;;;;26.70;16.70;;;2.50;99.90;;;;;;1746854;81;21568;-76
2022/01/11 02:44:22;;;;;;;25.88;17.27;;;2.50;99.90;;;;;;1746462;80;21102;-76
2022/01/11 02:46:49;;;;;;;26.75;17.20;;;2.50;99.90;;;;;;1751349;80;21563;-75
2022/01/11 02:49:16;;;;;;;25.72;17.60;;;2.40;99.90;;;;;;1743590;80;21202;-76
2022/01/11 02:51:44;;;;;;;28.85;17.05;;;2.40;99.90;;;;;;1752439;80;21152;-76
2022/01/11 02:54:11;;;;;;;32.65;17.05;;;2.40;99.90;;;;;;1750874;81;21187;-76
2022/01/11 02:56:38;;;;;;;30.62;19.48;;;2.50;99.90;;;;;;1753680;81;21204;-78
2022/01/11 02:59:06;;;;;;;27.07;16.97;;;2.50;99.90;;;;;;1749128;81;21571;-76
2022/01/11 03:01:33;;;;;;;32.00;17.15;;;2.40;99.90;;;;;;1754377;80;21552;-76
2022/01/11 03:04:00;;;;;;;28.47;17.55;;;2.40;99.90;;;;;;1752719;81;21103;-76
2022/01/11 03:06:28;;;;;;;35.60;17.95;;;2.40;99.90;;;;;;1739718;79;21568;-76
2022/01/11 03:08:55;;;;;;;28.87;17.37;;;2.30;99.90;;;;;;1751795;81;21111;-77
2022/01/11 03:11:24;;;;;;;29.87;17.87;;;2.30;99.90;;;;;;1751891;81;21562;-76
2022/01/11 03:13:51;;;;;;;28.67;17.27;;;2.40;99.90;;;;;;1741981;80;21093;-76
2022/01/11 03:16:19;;;;;;;27.05;17.45;;;2.30;99.90;;;;;;1751462;81;21209;-76
2022/01/11 03:18:46;;;;;;;26.60;17.23;;;2.30;99.90;;;;;;1757368;80;21089;-77
2022/01/11 03:21:15;;;;;;;31.15;17.70;;;2.30;99.90;;;;;;1750535;81;21150;-77
2022/01/11 03:23:43;;;;;;;31.82;18.10;;;2.50;99.90;;;;;;1762873;81;21461;-75
2022/01/11 03:26:10;;;;;;;35.15;17.95;;;2.40;99.90;;;;;;1746158;81;21113;-76
2022/01/11 03:28:39;;;;;;;24.40;16.17;;;2.30;99.90;;;;;;1750861;81;21477;-77
2022/01/11 03:31:06;;;;;;;28.87;16.55;;;2.40;99.90;;;;;;1751483;82;21050;-77
2022/01/11 03:33:34;;;;;;;30.08;16.52;;;2.50;99.90;;;;;;1749987;80;21110;-77
2022/01/11 03:36:01;;;;;;;25.15;17.07;;;2.50;99.90;;;;;;1750801;81;21109;-77
2022/01/11 03:38:30;;;;;;;31.17;16.82;;;2.40;99.90;;;;;;1750496;80;21118;-75
2022/01/11 03:40:57;;;;;;;27.20;16.80;;;2.40;99.90;;;;;;1752767;80;21528;-77
2022/01/11 03:43:26;;;;;;;27.25;16.62;;;2.40;99.90;;;;;;1753519;80;21132;-76
2022/01/11 03:45:53;;;;;;;28.92;16.42;;;2.40;99.90;;;;;;1757832;80;21116;-76
2022/01/11 03:48:20;;;;;;;24.30;16.02;;;2.40;99.90;;;;;;1751710;81;21109;-76
2022/01/11 03:50:55;;;;;;;25.05;16.93;;;2.40;99.90;;;;;;1742050;82;21113;-77
2022/01/11 03:53:27;;;;;;;30.55;17.67;;;2.30;99.90;;;;;;1737095;81;21123;-77
2022/01/11 03:58:21;;;;;;;30.17;17.57;;;2.30;99.90;;;;;;1741437;82;21094;-77
2022/01/11 04:00:50;;;;;;;38.63;17.62;;;2.20;99.90;;;;;;1739932;81;21434;-75
2022/01/11 04:03:17;;;;;;;27.80;18.40;;;2.20;99.90;;;;;;1754538;80;21117;-76
2022/01/11 04:05:46;;;;;;;29.72;18.48;;;2.10;99.90;;;;;;1745566;80;21672;-76
2022/01/11 04:08:13;;;;;;;36.60;18.27;;;2.20;99.90;;;;;;1741446;81;21214;-76
2022/01/11 04:10:40;;;;;;;32.08;19.05;;;2.20;99.90;;;;;;1750720;80;21186;-77
2022/01/11 04:13:08;;;;;;;30.95;19.48;;;2.30;99.90;;;;;;1740286;81;21094;-75
2022/01/11 04:15:35;;;;;;;32.98;19.37;;;2.40;99.90;;;;;;1746183;81;21504;-77
2022/01/11 04:18:02;;;;;;;27.70;17.50;;;2.40;99.90;;;;;;1752253;80;21187;-76
2022/01/11 04:20:30;;;;;;;30.00;19.35;;;2.40;99.90;;;;;;1744869;81;21450;-75
2022/01/11 04:22:57;;;;;;;31.52;19.12;;;2.40;99.90;;;;;;1741158;81;21077;-76
2022/01/11 04:25:24;;;;;;;29.57;18.87;;;2.40;99.90;;;;;;1743918;81;21203;-76
2022/01/11 04:27:52;;;;;;;34.85;19.02;;;2.40;99.90;;;;;;1744647;81;21188;-76
2022/01/11 04:30:19;;;;;;;27.82;19.35;;;2.40;99.90;;;;;;1739490;82;21190;-77
2022/01/11 04:32:46;;;;;;;26.60;17.05;;;2.40;99.90;;;;;;1742803;82;21200;-76
2022/01/11 04:35:15;;;;;;;34.40;19.45;;;2.50;99.90;;;;;;1750805;81;21118;-76
2022/01/11 04:37:44;;;;;;;24.95;17.80;;;2.50;99.90;;;;;;1752252;80;21088;-75
2022/01/11 04:40:12;;;;;;;34.48;18.77;;;2.50;99.90;;;;;;1748808;81;21170;-77
2022/01/11 04:42:39;;;;;;;36.38;19.32;;;2.50;99.90;;;;;;1746947;80;21075;-77
2022/01/11 04:45:10;;;;;;;33.98;20.27;;;2.50;99.90;;;;;;1741846;82;21638;-76
2022/01/11 04:47:36;;;;;;;37.38;18.92;;;2.40;99.90;;;;;;1744275;81;21194;-76
2022/01/11 04:50:04;;;;;;;32.90;20.75;;;2.50;99.90;;;;;;1746035;81;21570;-76
2022/01/11 04:52:31;;;;;;;32.75;20.52;;;2.50;99.90;;;;;;1747884;81;21119;-76
2022/01/11 04:54:58;;;;;;;32.63;20.80;;;2.50;99.90;;;;;;1748902;81;21461;-76
2022/01/11 04:57:26;;;;;;;38.33;20.23;;;2.60;99.90;;;;;;1751161;81;21087;-76
2022/01/11 04:59:53;;;;;;;38.67;21.62;;;2.70;99.90;;;;;;1748254;81;21509;-76
2022/01/11 05:02:20;;;;;;;34.15;20.90;;;2.70;99.90;;;;;;1750884;80;21183;-76
2022/01/11 05:04:48;;;;;;;36.58;20.48;;;2.60;99.90;;;;;;1742219;80;21085;-76
2022/01/11 05:07:15;;;;;;;47.45;20.37;;;2.70;99.90;;;;;;1757613;80;21175;-76
2022/01/11 05:09:42;;;;;;;39.20;20.52;;;2.70;99.90;;;;;;1751656;81;21214;-77
2022/01/11 05:12:10;;;;;;;32.90;20.62;;;2.80;99.90;;;;;;1747801;81;21124;-78
2022/01/11 05:14:37;;;;;;;34.60;20.10;;;2.80;99.90;;;;;;1745900;81;21180;-77
2022/01/11 05:17:05;;;;;;;36.98;20.35;;;2.60;99.90;;;;;;1739331;81;21131;-76
2022/01/11 05:19:32;;;;;;;32.70;20.08;;;2.70;99.90;;;;;;1744999;82;21196;-78
2022/01/11 05:22:00;;;;;;;32.15;19.65;;;2.60;99.90;;;;;;1753403;80;21266;-76
2022/01/11 05:24:27;;;;;;;36.48;19.40;;;2.60;99.90;;;;;;1739795;81;21150;-77
2022/01/11 05:26:54;;;;;;;38.73;20.08;;;2.70;99.90;;;;;;1754642;81;21159;-78
2022/01/11 05:29:22;;;;;;;39.92;20.85;;;2.70;99.90;;;;;;1751347;80;21117;-78
2022/01/11 05:31:49;;;;;;;38.38;20.40;;;2.70;99.90;;;;;;1748349;80;21217;-76
2022/01/11 05:34:16;;;;;;;34.13;21.48;;;2.70;99.90;;;;;;1740150;80;21192;-75
2022/01/11 05:36:43;;;;;;;59.42;19.62;;;2.60;99.90;;;;;;1750269;81;21508;-75
2022/01/11 05:39:11;;;;;;;39.85;19.75;;;2.60;99.90;;;;;;1753163;80;21232;-77
2022/01/11 05:41:38;;;;;;;29.35;19.55;;;2.60;99.90;;;;;;1741349;81;21587;-78
2022/01/11 05:44:06;;;;;;;38.73;20.37;;;2.60;99.90;;;;;;1747982;81;21318;-76
2022/01/11 05:46:33;;;;;;;41.92;19.40;;;2.60;99.90;;;;;;1748993;81;21265;-76
2022/01/11 05:49:00;;;;;;;29.37;18.95;;;2.60;99.90;;;;;;1749087;80;21097;-76
2022/01/11 05:51:28;;;;;;;34.78;20.62;;;2.50;99.90;;;;;;1754020;80;21086;-76
2022/01/11 05:53:55;;;;;;;38.13;20.97;;;2.50;99.90;;;;;;1747732;80;21265;-77
2022/01/11 05:56:23;;;;;;;45.52;21.75;;;2.50;99.90;;;;;;1738850;80;21176;-77
2022/01/11 05:58:52;;;;;;;41.02;21.27;;;2.50;99.90;;;;;;1753683;80;21120;-76
2022/01/11 06:01:20;;;;;;;36.05;22.10;;;2.40;99.90;;;;;;1746900;81;21541;-77
2022/01/11 06:03:47;;;;;;;36.88;21.37;;;2.40;99.90;;;;;;1749865;80;21117;-77
2022/01/11 06:06:15;;;;;;;34.95;20.60;;;2.40;99.90;;;;;;1748517;80;21117;-76
2022/01/11 06:08:43;;;;;;;36.98;21.85;;;2.40;99.90;;;;;;1752309;80;21151;-76
2022/01/11 06:11:11;;;;;;;43.52;21.48;;;2.40;99.90;;;;;;1751841;82;21126;-76
2022/01/11 06:13:38;;;;;;;34.92;20.17;;;2.40;99.90;;;;;;1750015;81;21206;-76
2022/01/11 06:16:07;;;;;;;31.73;19.85;;;2.40;99.90;;;;;;1759683;80;21214;-76
2022/01/11 06:18:35;;;;;;;39.78;19.87;;;2.40;99.90;;;;;;1752097;81;21116;-76
2022/01/11 06:21:03;;;;;;;29.05;19.15;;;2.50;99.90;;;;;;1750425;80;21276;-77
2022/01/11 06:23:30;;;;;;;34.33;19.52;;;2.60;99.90;;;;;;1746045;81;21195;-76
2022/01/11 06:25:58;;;;;;;32.00;18.42;;;2.60;99.90;;;;;;1751912;80;21303;-76
2022/01/11 06:28:25;;;;;;;31.60;17.95;;;2.70;99.90;;;;;;1748100;81;21235;-77
2022/01/11 06:30:52;;;;;;;24.72;17.12;;;2.70;99.90;;;;;;1748714;80;21117;-75
2022/01/11 06:33:20;;;;;;;32.23;18.23;;;2.70;99.90;;;;;;1738465;81;21204;-75
2022/01/11 06:35:47;;;;;;;32.23;18.15;;;2.70;99.90;;;;;;1751951;80;21186;-75
2022/01/11 06:38:14;;;;;;;25.75;18.27;;;2.70;99.90;;;;;;1750739;80;21506;-75
2022/01/11 06:40:44;;;;;;;32.70;19.05;;;2.70;99.90;;;;;;1752528;80;21120;-76
2022/01/11 06:43:12;;;;;;;31.00;18.52;;;2.60;99.90;;;;;;1752597;80;21105;-75
2022/01/11 06:45:40;;;;;;;26.12;17.32;;;2.70;99.90;;;;;;1755460;80;21118;-76
2022/01/11 06:48:08;;;;;;;30.32;17.05;;;2.70;99.90;;;;;;1742896;82;21094;-74
2022/01/11 06:50:35;;;;;;;25.50;16.50;;;2.60;99.90;;;;;;1746398;80;21862;-74
2022/01/11 06:53:02;;;;;;;28.20;16.85;;;2.70;99.90;;;;;;1750101;80;21201;-74
2022/01/11 06:55:30;;;;;;;32.78;17.15;;;2.70;99.90;;;;;;1752098;82;21113;-75
2022/01/11 06:57:57;;;;;;;33.80;17.67;;;2.70;99.90;;;;;;1750514;81;21113;-74
2022/01/11 07:00:24;;;;;;;35.17;18.90;;;2.60;99.90;;;;;;1754429;81;21121;-74
2022/01/11 07:02:52;;;;;;;20.97;15.98;;;2.60;99.90;;;;;;1745334;81;21187;-74
2022/01/11 07:05:21;;;;;;;23.95;17.12;;;2.70;99.90;;;;;;1754031;81;21108;-74
2022/01/11 07:07:48;;;;;;;27.22;16.23;;;2.70;99.90;;;;;;1749687;81;21196;-75
2022/01/11 07:10:15;;;;;;;28.65;17.82;;;2.70;99.90;;;;;;1747768;81;21116;-76
2022/01/11 07:12:43;;;;;;;30.82;17.77;;;2.70;99.90;;;;;;1745224;81;21520;-75
2022/01/11 07:15:12;;;;;;;25.85;17.37;;;2.70;99.90;;;;;;1747529;80;21532;-76
2022/01/11 07:17:39;;;;;;;28.70;17.15;;;2.70;99.90;;;;;;1751082;80;21113;-76
2022/01/11 07:20:07;;;;;;;36.23;19.55;;;2.60;99.90;;;;;;1742293;81;21191;-76
2022/01/11 07:22:36;;;;;;;27.90;17.85;;;2.70;99.90;;;;;;1750731;81;21117;-75
2022/01/11 07:25:04;;;;;;;28.57;18.42;;;2.70;99.90;;;;;;1751835;80;21130;-76
2022/01/11 07:27:33;;;;;;;30.40;18.25;;;2.80;99.90;;;;;;1747807;81;21109;-76
2022/01/11 07:30:04;;;;;;;28.25;18.12;;;2.80;99.90;;;;;;1747097;80;21127;-76
2022/01/11 07:32:31;;;;;;;;;;;2.80;99.90;;;;;;1752150;81;21115;-75
2022/01/11 07:34:59;;;;;;;28.55;18.12;;;2.80;99.90;;;;;;1740095;81;20121;-76
2022/01/11 07:37:26;;;;;;;35.28;19.37;;;2.80;99.90;;;;;;1751920;80;21238;-75
2022/01/11 07:39:54;;;;;;;26.15;18.17;;;2.90;99.90;;;;;;1750564;81;21155;-74
2022/01/11 07:42:21;;;;;;;32.38;21.30;;;2.90;99.90;;;;;;1753990;81;21183;-75
2022/01/11 07:44:51;;;;;;;41.33;22.90;;;2.90;99.90;;;;;;1755945;80;21119;-75
2022/01/11 07:47:19;;;;;;;33.95;21.85;;;2.90;99.90;;;;;;1744621;80;21501;-75
2022/01/11 07:49:50;;;;;;;35.05;20.75;;;2.90;99.90;;;;;;1743272;81;21223;-75
2022/01/11 07:52:17;;;;;;;33.60;21.45;;;3.00;99.90;;;;;;1753027;80;21192;-76
2022/01/11 07:54:44;;;;;;;35.55;20.60;;;2.90;99.90;;;;;;1745502;81;21611;-75
2022/01/11 07:57:11;;;;;;;39.73;22.35;;;3.00;99.90;;;;;;1745345;81;21190;-75
2022/01/11 07:59:39;;;;;;;36.70;20.75;;;3.00;99.90;;;;;;1752926;80;21109;-74
2022/01/11 08:02:06;;;;;;;34.63;21.45;;;3.00;99.90;;;;;;1749703;80;21191;-76
2022/01/11 08:04:33;;;;;;;38.50;21.62;;;3.00;99.90;;;;;;1749063;81;21110;-75
2022/01/11 08:07:01;;;;;;;42.35;21.85;;;3.00;99.90;;;;;;1745977;81;21172;-76
2022/01/11 08:09:28;;;;;;;33.20;21.30;;;3.00;99.90;;;;;;1749463;80;21436;-75
2022/01/11 08:11:58;;;;;;;41.63;21.57;;;3.00;99.90;;;;;;1747026;81;21179;-76
2022/01/11 08:14:25;;;;;;;40.43;21.10;;;3.10;99.90;;;;;;1752394;81;21496;-76
2022/01/11 08:16:53;;;;;;;34.98;20.48;;;3.10;99.90;;;;;;1754599;80;21136;-75
2022/01/11 08:19:25;;;;;;;32.00;20.90;;;3.20;99.90;;;;;;1748944;80;21545;-75
2022/01/11 08:22:03;;;;;;;44.63;21.52;;;3.20;99.90;;;;;;1757802;81;21124;-76
2022/01/11 08:24:32;;;;;;;44.05;21.20;;;3.20;99.90;;;;;;1751226;80;21121;-76
2022/01/11 08:26:59;;;;;;;33.38;21.02;;;3.30;99.90;;;;;;1745496;81;21203;-74
2022/01/11 08:29:28;;;;;;;40.75;21.60;;;3.30;99.90;;;;;;1746635;81;21133;-73
2022/01/11 08:31:56;;;;;;;36.05;21.25;;;3.40;99.90;;;;;;1748739;80;21325;-74
2022/01/11 08:34:23;;;;;;;33.42;20.80;;;3.40;99.90;;;;;;1741290;80;21578;-76
2022/01/11 08:36:50;;;;;;;42.43;21.42;;;3.40;99.90;;;;;;1740802;81;21179;-75
2022/01/11 08:39:18;;;;;;;32.13;20.55;;;3.50;99.90;;;;;;1748642;81;21125;-75
2022/01/11 08:41:46;;;;;;;37.05;20.35;;;3.50;99.90;;;;;;1745107;80;21199;-75
2022/01/11 08:44:13;;;;;;;35.05;20.88;;;3.50;99.90;;;;;;1749051;82;21135;-75
2022/01/11 08:46:42;;;;;;;33.15;20.75;;;3.50;99.90;;;;;;1745348;80;21120;-76
2022/01/11 08:49:10;;;;;;;34.30;20.50;;;3.60;99.90;;;;;;1749320;81;21191;-76
2022/01/11 08:51:38;;;;;;;35.80;20.43;;;3.50;99.90;;;;;;1751583;81;21550;-75
2022/01/11 08:54:05;;;;;;;36.80;20.32;;;3.60;99.90;;;;;;1740822;81;21188;-76
2022/01/11 08:56:33;;;;;;;50.88;22.62;;;3.50;99.90;;;;;;1744885;80;21184;-77
2022/01/11 08:59:00;;;;;;;33.98;20.85;;;3.50;99.90;;;;;;1753335;81;21116;-77
2022/01/11 09:01:28;;;;;;;36.93;19.67;;;3.60;99.90;;;;;;1751405;81;21134;-76
2022/01/11 09:03:55;;;;;;;38.75;19.98;;;3.70;99.90;;;;;;1741721;82;21070;-76
2022/01/11 09:06:23;;;;;;;31.00;19.55;;;3.70;99.90;;;;;;1742277;82;21070;-75
2022/01/11 09:08:51;;;;;;;37.63;19.37;;;3.70;99.90;;;;;;1744316;81;21199;-76
2022/01/11 09:11:18;;;;;;;38.23;20.15;;;3.70;99.90;;;;;;1753533;81;21129;-76
2022/01/11 09:13:45;;;;;;;38.45;19.87;;;3.80;99.90;;;;;;1747803;80;21160;-76
2022/01/11 09:16:13;;;;;;;39.45;18.15;;;3.90;99.90;;;;;;1749102;81;21113;-75
2022/01/11 09:18:40;;;;;;;30.40;19.40;;;4.00;99.90;;;;;;1751190;80;21113;-76
2022/01/11 09:21:08;;;;;;;29.67;18.52;;;4.00;99.90;;;;;;1749854;81;21207;-76
2022/01/11 09:23:38;;;;;;;37.58;18.67;;;4.00;99.90;;;;;;1745045;81;21090;-77
2022/01/11 09:26:05;;;;;;;32.67;18.70;;;3.80;99.90;;;;;;1748686;81;21583;-74
2022/01/11 09:28:32;;;;;;;27.30;17.32;;;3.80;99.90;;;;;;1748645;80;21208;-74
2022/01/11 09:31:00;;;;;;;36.05;18.37;;;3.80;99.90;;;;;;1749278;81;21192;-77
2022/01/11 09:33:29;;;;;;;25.90;17.20;;;3.80;99.90;;;;;;1742210;81;21142;-77
2022/01/11 09:35:56;;;;;;;28.20;16.93;;;3.90;99.90;;;;;;1747297;80;21200;-75
2022/01/11 09:38:24;;;;;;;28.85;15.70;;;4.10;99.90;;;;;;1743426;82;21184;-75
2022/01/11 09:40:52;;;;;;;28.40;17.05;;;4.30;99.90;;;;;;1749215;82;21121;-76
2022/01/11 09:43:21;;;;;;;26.42;15.98;;;4.30;99.90;;;;;;1750519;81;21219;-75
2022/01/11 09:45:49;;;;;;;28.10;17.50;;;4.20;99.90;;;;;;1752074;82;21187;-73
2022/01/11 09:48:21;;;;;;;32.00;16.12;;;4.20;99.90;;;;;;1749409;81;21165;-72
2022/01/11 09:50:48;;;;;;;28.23;17.57;;;4.30;99.90;;;;;;1752187;82;21089;-77
2022/01/11 09:53:16;;;;;;;35.43;18.02;;;4.30;99.90;;;;;;1744790;81;21207;-74
2022/01/11 09:55:44;;;;;;;27.62;16.75;;;4.50;99.90;;;;;;1745188;80;21105;-73
2022/01/11 09:58:12;;;;;;;29.07;17.17;;;4.60;99.90;;;;;;1750081;81;21134;-73
2022/01/11 10:00:40;;;;;;;37.55;16.42;;;4.50;99.90;;;;;;1752374;81;21505;-71
2022/01/11 10:03:09;;;;;;;25.45;16.42;;;4.40;99.90;;;;;;1749204;79;21523;-71
2022/01/11 10:05:37;;;;;;;29.20;16.37;;;4.50;99.90;;;;;;1756863;80;21317;-71
2022/01/11 10:08:22;;;;;;;29.40;16.35;;;4.60;99.90;;;;;;1745972;81;21191;-72
2022/01/11 10:10:49;;;;;;;16.95;11.55;;;4.90;99.90;;;;;;1751145;80;21466;-74
2022/01/11 10:13:37;;;;;;;26.97;12.23;;;4.80;99.90;;;;;;1749934;80;21153;-73
2022/01/11 10:16:24;;;;;;;18.92;10.40;;;4.90;99.90;;;;;;1752154;80;21132;-72
2022/01/11 10:18:52;;;;;;;18.85;11.20;;;5.20;99.90;;;;;;1749525;80;21260;-73
2022/01/11 10:21:40;;;;;;;17.62;9.60;;;5.20;99.90;;;;;;1746124;81;21598;-72
2022/01/11 10:24:25;;;;;;;14.23;8.68;;;5.20;99.90;;;;;;1697817;83;21591;-72
2022/01/11 10:26:53;;;;;;;18.70;8.93;;;5.30;99.90;;;;;;1743967;81;21181;-73
2022/01/11 10:29:37;;;;;;;14.83;8.73;;;5.30;99.90;;;;;;1741083;81;21218;-71
2022/01/11 10:32:23;;;;;;;12.53;8.55;;;5.30;99.90;;;;;;1748678;80;21129;-72
2022/01/11 10:34:58;;;;;;;14.47;9.15;;;5.20;99.90;;;;;;1687498;83;21213;-73
2022/01/11 10:37:31;;;;;;;12.95;8.28;;;5.40;99.90;;;;;;1720412;82;21125;-73
2022/01/11 10:40:10;;;;;;;16.25;8.65;;;5.40;99.90;;;;;;1718895;82;21697;-72
2022/01/11 10:42:46;;;;;;;13.75;8.05;;;5.50;99.90;;;;;;1703039;83;21200;-72
2022/01/11 10:45:15;;;;;;;15.55;8.23;;;5.60;99.90;;;;;;1688118;82;21199;-73
2022/01/11 10:47:46;;;;;;;12.78;8.08;;;5.80;99.90;;;;;;1734187;80;21107;-72
2022/01/11 10:50:26;;;;;;;15.60;8.25;;;5.70;99.90;;;;;;1753994;80;21113;-74
2022/01/11 10:52:50;;;;;;;11.05;7.40;;;5.90;99.90;;;;;;1751770;81;21097;-72
2022/01/11 10:55:19;;;;;;;9.73;6.60;;;6.10;99.90;;;;;;1758362;80;21219;-73
2022/01/11 10:57:52;;;;;;;13.45;6.70;;;6.40;99.90;;;;;;1756733;80;21255;-71
2022/01/11 11:00:24;;;;;;;12.63;6.22;;;7.00;99.90;;;;;;1713663;83;21206;-72
2022/01/11 11:02:56;;;;;;;8.48;5.67;;;7.50;99.90;;;;;;1704477;82;21102;-71
2022/01/11 11:05:32;;;;;;;12.55;6.10;;;7.50;99.90;;;;;;1715021;82;21264;-73
2022/01/11 11:08:17;;;;;;;7.37;5.92;;;7.40;99.90;;;;;;1748086;80;21114;-72
2022/01/11 11:10:47;;;;;;;8.70;5.65;;;7.10;99.90;;;;;;1752212;81;21250;-74
2022/01/11 11:13:22;;;;;;;11.12;5.37;;;7.30;99.90;;;;;;1749778;80;21097;-73
2022/01/11 11:15:51;;;;;;;6.67;4.95;;;7.80;99.90;;;;;;1680334;83;21121;-72
2022/01/11 11:18:26;;;;;;;7.25;5.20;;;7.80;99.90;;;;;;1753002;81;21117;-77
2022/01/11 11:20:58;;;;;;;6.92;5.25;;;7.30;99.90;;;;;;1751488;80;21125;-72
2022/01/11 11:23:28;;;;;;;7.12;5.30;;;7.00;99.90;;;;;;1752070;81;21098;-73
2022/01/11 11:25:58;;;;;;;7.62;5.25;;;6.70;99.90;;;;;;1746470;80;21101;-75
2022/01/11 11:28:25;;;;;;;9.43;4.78;;;6.70;99.90;;;;;;1744148;80;21178;-72
2022/01/11 11:30:52;;;;;;;10.58;5.08;;;6.40;99.90;;;;;;1750397;80;21617;-71
2022/01/11 11:33:19;;;;;;;6.17;4.40;;;6.30;99.90;;;;;;1756958;80;21125;-72
2022/01/11 11:35:48;;;;;;;8.00;4.78;;;6.20;99.90;;;;;;1755717;80;21119;-71
2022/01/11 11:38:16;;;;;;;6.95;4.85;;;6.20;99.90;;;;;;1737355;81;21625;-73
2022/01/11 11:40:43;;;;;;;7.50;4.78;;;6.20;99.90;;;;;;1750046;80;21117;-73
2022/01/11 11:43:11;;;;;;;5.33;3.80;;;6.30;99.90;;;;;;1746291;81;21202;-74
2022/01/11 11:45:39;;;;;;;4.05;3.47;;;6.40;99.90;;;;;;1749803;81;21124;-73
2022/01/11 11:48:13;;;;;;;2.70;2.50;;;6.90;99.90;;;;;;1753102;80;21533;-72
2022/01/11 11:50:58;;;;;;;7.65;2.52;;;6.90;99.90;;;;;;1751264;80;21533;-75
2022/01/11 11:53:37;;;;;;;3.95;2.20;;;7.10;99.90;;;;;;1686932;83;21129;-74
2022/01/11 11:56:40;;;;;;;2.47;2.15;;;6.60;99.90;;;;;;1712960;82;21506;-72
2022/01/11 11:59:09;;;;;;;3.25;2.75;;;6.40;99.90;;;;;;1759513;81;21123;-72
2022/01/11 12:01:45;;;;;;;3.80;2.60;;;6.60;99.90;;;;;;1784119;78;21109;-72
2022/01/11 12:04:13;;;;;;;3.98;2.58;;;6.80;99.90;;;;;;1749781;79;21235;-71
2022/01/11 12:06:41;;;;;;;3.22;2.33;;;6.80;99.90;;;;;;1725481;80;21199;-72
2022/01/11 12:09:14;;;;;;;2.08;1.75;;;6.30;99.90;;;;;;1807756;79;21093;-73
2022/01/11 12:11:46;;;;;;;3.12;2.20;;;6.00;99.90;;;;;;1807697;77;21097;-73
2022/01/11 12:14:30;;;;;;;2.77;2.45;;;6.10;99.90;;;;;;1791156;78;21106;-71
2022/01/11 12:17:18;;;;;;;3.67;2.30;;;6.20;99.90;;;;;;1807810;77;21044;-73
2022/01/11 12:19:52;;;;;;;7.80;2.98;;;6.20;99.90;;;;;;1818676;77;21083;-72
2022/01/11 12:22:25;;;;;;;4.35;2.70;;;6.10;99.90;;;;;;1808899;77;21530;-71
2022/01/11 12:24:55;;;;;;;6.90;2.77;;;6.10;99.90;;;;;;1811373;77;21230;-74
2022/01/11 12:27:22;;;;;;;;;;;6.00;99.90;;;;;;1807452;77;21171;-74
2022/01/11 12:30:01;;;;;;;4.00;2.62;;;6.10;99.90;;;;;;1800855;77;20373;-74
2022/01/11 12:32:32;;;;;;;3.58;2.75;;;6.10;99.90;;;;;;1800763;78;21117;-75
2022/01/11 12:35:05;;;;;;;3.85;2.77;;;5.90;99.90;;;;;;1799806;77;21071;-75
2022/01/11 12:37:40;;;;;;;3.98;2.70;;;5.90;99.90;;;;;;1804855;77;21152;-74
2022/01/11 12:40:13;;;;;;;4.45;2.90;;;6.00;99.90;;;;;;1813753;79;20999;-74
2022/01/11 12:43:02;;;;;;;3.92;2.90;;;5.90;99.90;;;;;;1814085;77;21068;-74
2022/01/11 12:45:55;;;;;;;4.17;3.08;;;6.00;99.90;;;;;;1807939;77;21093;-74
2022/01/11 12:48:52;;;;;;;5.55;3.12;;;5.90;99.90;;;;;;1791165;77;21121;-74
2022/01/11 12:51:40;;;;;;;5.40;3.10;;;6.00;99.90;;;;;;1800029;77;21055;-75
2022/01/11 12:54:27;;;;;;;4.87;3.40;;;5.80;99.90;;;;;;1818143;76;21442;-75
2022/01/11 12:56:57;;;;;;;6.22;3.20;;;5.80;99.90;;;;;;1791236;77;21104;-74